sensor_id;sensor_type;location;lat;lon;timestamp;P1;durP1;ratioP1;P2;durP2;ratioP2
39188;SDS011;24915;50.858;4.376;2022-08-19T00:01:29;21.65;;;17.88;;
39188;SDS011;24915;50.858;4.376;2022-08-19T00:03:56;18.23;;;16.13;;
39188;SDS011;24915;50.858;4.376;2022-08-19T00:06:22;23.35;;;18.08;;
39188;SDS011;24915;50.858;4.376;2022-08-19T00:08:48;20.38;;;17.67;;
39188;SDS011;24915;50.858;4.376;2022-08-19T00:11:16;23.42;;;20.17;;
39188;SDS011;24915;50.858;4.376;2022-08-19T00:13:42;22.15;;;19.25;;
39188;SDS011;24915;50.858;4.376;2022-08-19T00:16:08;22.40;;;19.85;;
39188;SDS011;24915;50.858;4.376;2022-08-19T00:18:34;23.83;;;20.15;;
39188;SDS011;24915;50.858;4.376;2022-08-19T00:21:00;23.63;;;20.60;;
39188;SDS011;24915;50.858;4.376;2022-08-19T00:23:26;30.75;;;25.75;;
39188;SDS011;24915;50.858;4.376;2022-08-19T00:25:52;36.40;;;25.50;;
39188;SDS011;24915;50.858;4.376;2022-08-19T00:28:18;33.20;;;25.67;;
39188;SDS011;24915;50.858;4.376;2022-08-19T00:30:45;37.08;;;25.77;;
39188;SDS011;24915;50.858;4.376;2022-08-19T00:33:11;29.90;;;23.55;;
39188;SDS011;24915;50.858;4.376;2022-08-19T00:35:38;37.95;;;27.05;;
39188;SDS011;24915;50.858;4.376;2022-08-19T00:38:04;37.85;;;29.10;;
39188;SDS011;24915;50.858;4.376;2022-08-19T00:40:31;38.10;;;28.58;;
39188;SDS011;24915;50.858;4.376;2022-08-19T00:42:57;48.13;;;34.55;;
39188;SDS011;24915;50.858;4.376;2022-08-19T00:45:25;46.92;;;33.83;;
39188;SDS011;24915;50.858;4.376;2022-08-19T00:47:52;43.50;;;31.65;;
39188;SDS011;24915;50.858;4.376;2022-08-19T00:50:18;49.58;;;36.33;;
39188;SDS011;24915;50.858;4.376;2022-08-19T00:52:46;50.47;;;36.80;;
39188;SDS011;24915;50.858;4.376;2022-08-19T00:55:24;48.05;;;37.33;;
39188;SDS011;24915;50.858;4.376;2022-08-19T00:58:01;50.05;;;35.53;;
39188;SDS011;24915;50.858;4.376;2022-08-19T01:00:32;47.50;;;33.95;;
39188;SDS011;24915;50.858;4.376;2022-08-19T01:03:01;49.58;;;34.55;;
39188;SDS011;24915;50.858;4.376;2022-08-19T01:05:31;52.53;;;35.50;;
39188;SDS011;24915;50.858;4.376;2022-08-19T01:07:58;46.08;;;33.70;;
39188;SDS011;24915;50.858;4.376;2022-08-19T01:10:27;56.00;;;38.85;;
39188;SDS011;24915;50.858;4.376;2022-08-19T01:12:55;52.45;;;38.15;;
39188;SDS011;24915;50.858;4.376;2022-08-19T01:15:23;57.15;;;39.05;;
39188;SDS011;24915;50.858;4.376;2022-08-19T01:17:53;61.90;;;42.60;;
39188;SDS011;24915;50.858;4.376;2022-08-19T01:20:21;52.38;;;38.92;;
39188;SDS011;24915;50.858;4.376;2022-08-19T01:22:52;41.30;;;31.17;;
39188;SDS011;24915;50.858;4.376;2022-08-19T01:25:21;44.22;;;33.10;;
39188;SDS011;24915;50.858;4.376;2022-08-19T01:27:49;38.55;;;28.33;;
39188;SDS011;24915;50.858;4.376;2022-08-19T01:30:18;37.95;;;29.60;;
39188;SDS011;24915;50.858;4.376;2022-08-19T01:32:50;42.95;;;32.40;;
39188;SDS011;24915;50.858;4.376;2022-08-19T01:35:17;44.55;;;31.73;;
39188;SDS011;24915;50.858;4.376;2022-08-19T01:37:53;43.28;;;32.45;;
39188;SDS011;24915;50.858;4.376;2022-08-19T01:40:27;42.85;;;30.80;;
39188;SDS011;24915;50.858;4.376;2022-08-19T01:42:55;34.95;;;27.58;;
39188;SDS011;24915;50.858;4.376;2022-08-19T01:45:22;39.95;;;30.40;;
39188;SDS011;24915;50.858;4.376;2022-08-19T01:47:49;40.47;;;29.48;;
39188;SDS011;24915;50.858;4.376;2022-08-19T01:50:15;31.08;;;24.98;;
39188;SDS011;24915;50.858;4.376;2022-08-19T01:52:42;33.85;;;26.17;;
39188;SDS011;24915;50.858;4.376;2022-08-19T01:55:13;28.98;;;23.33;;
39188;SDS011;24915;50.858;4.376;2022-08-19T01:57:41;39.17;;;29.00;;
39188;SDS011;24915;50.858;4.376;2022-08-19T02:00:11;36.10;;;26.98;;
39188;SDS011;24915;50.858;4.376;2022-08-19T02:02:40;38.35;;;27.05;;
39188;SDS011;24915;50.858;4.376;2022-08-19T02:05:07;37.28;;;29.60;;
39188;SDS011;24915;50.858;4.376;2022-08-19T02:07:34;34.80;;;27.00;;
39188;SDS011;24915;50.858;4.376;2022-08-19T02:10:02;31.67;;;25.08;;
39188;SDS011;24915;50.858;4.376;2022-08-19T02:12:29;32.47;;;24.65;;
39188;SDS011;24915;50.858;4.376;2022-08-19T02:14:55;30.90;;;22.48;;
39188;SDS011;24915;50.858;4.376;2022-08-19T02:17:21;27.55;;;20.27;;
39188;SDS011;24915;50.858;4.376;2022-08-19T02:19:46;23.48;;;19.15;;
39188;SDS011;24915;50.858;4.376;2022-08-19T02:22:14;20.27;;;16.65;;
39188;SDS011;24915;50.858;4.376;2022-08-19T02:24:39;26.08;;;19.30;;
39188;SDS011;24915;50.858;4.376;2022-08-19T02:27:05;24.83;;;18.83;;
39188;SDS011;24915;50.858;4.376;2022-08-19T02:29:31;29.55;;;21.67;;
39188;SDS011;24915;50.858;4.376;2022-08-19T02:31:57;29.27;;;23.05;;
39188;SDS011;24915;50.858;4.376;2022-08-19T02:34:23;33.97;;;28.05;;
39188;SDS011;24915;50.858;4.376;2022-08-19T02:36:50;37.95;;;28.63;;
39188;SDS011;24915;50.858;4.376;2022-08-19T02:39:16;32.90;;;26.05;;
39188;SDS011;24915;50.858;4.376;2022-08-19T02:41:42;32.83;;;24.35;;
39188;SDS011;24915;50.858;4.376;2022-08-19T02:44:08;33.40;;;24.00;;
39188;SDS011;24915;50.858;4.376;2022-08-19T02:46:34;33.10;;;25.08;;
39188;SDS011;24915;50.858;4.376;2022-08-19T02:49:00;33.17;;;24.58;;
39188;SDS011;24915;50.858;4.376;2022-08-19T02:51:34;34.75;;;26.00;;
39188;SDS011;24915;50.858;4.376;2022-08-19T02:54:04;37.78;;;27.10;;
39188;SDS011;24915;50.858;4.376;2022-08-19T02:56:31;33.00;;;24.02;;
39188;SDS011;24915;50.858;4.376;2022-08-19T02:58:59;33.90;;;25.40;;
39188;SDS011;24915;50.858;4.376;2022-08-19T03:01:29;32.55;;;25.73;;
39188;SDS011;24915;50.858;4.376;2022-08-19T03:03:58;32.28;;;24.92;;
39188;SDS011;24915;50.858;4.376;2022-08-19T03:06:24;31.00;;;22.70;;
39188;SDS011;24915;50.858;4.376;2022-08-19T03:14:22;37.10;;;23.88;;
39188;SDS011;24915;50.858;4.376;2022-08-19T03:19:23;33.50;;;23.63;;
39188;SDS011;24915;50.858;4.376;2022-08-19T17:18:39;4.45;;;3.45;;
39188;SDS011;24915;50.858;4.376;2022-08-19T17:21:04;4.97;;;3.35;;
39188;SDS011;24915;50.858;4.376;2022-08-19T17:23:30;4.97;;;3.47;;
39188;SDS011;24915;50.858;4.376;2022-08-19T17:25:56;7.25;;;3.40;;
39188;SDS011;24915;50.858;4.376;2022-08-19T17:28:23;9.32;;;4.43;;
39188;SDS011;24915;50.858;4.376;2022-08-19T17:30:51;7.25;;;4.43;;
39188;SDS011;24915;50.858;4.376;2022-08-19T17:33:18;6.38;;;4.35;;
39188;SDS011;24915;50.858;4.376;2022-08-19T17:35:44;6.88;;;5.78;;
39188;SDS011;24915;50.858;4.376;2022-08-19T17:38:12;13.45;;;4.40;;
39188;SDS011;24915;50.858;4.376;2022-08-19T17:40:41;6.18;;;3.88;;
39188;SDS011;24915;50.858;4.376;2022-08-19T17:43:08;6.68;;;4.45;;
39188;SDS011;24915;50.858;4.376;2022-08-19T17:45:35;4.80;;;4.10;;
39188;SDS011;24915;50.858;4.376;2022-08-19T17:48:03;5.63;;;3.40;;
39188;SDS011;24915;50.858;4.376;2022-08-19T17:50:29;4.03;;;3.58;;
39188;SDS011;24915;50.858;4.376;2022-08-19T17:52:55;5.05;;;4.35;;
39188;SDS011;24915;50.858;4.376;2022-08-19T17:55:22;5.28;;;3.92;;
39188;SDS011;24915;50.858;4.376;2022-08-19T17:57:48;4.90;;;4.15;;
39188;SDS011;24915;50.858;4.376;2022-08-19T18:00:15;6.00;;;4.90;;
39188;SDS011;24915;50.858;4.376;2022-08-19T18:02:54;5.82;;;5.07;;
39188;SDS011;24915;50.858;4.376;2022-08-19T18:05:26;8.35;;;5.10;;
39188;SDS011;24915;50.858;4.376;2022-08-19T18:07:54;5.18;;;4.72;;
39188;SDS011;24915;50.858;4.376;2022-08-19T18:10:22;7.18;;;5.22;;
39188;SDS011;24915;50.858;4.376;2022-08-19T18:12:50;7.65;;;4.80;;
39188;SDS011;24915;50.858;4.376;2022-08-19T18:15:16;9.73;;;4.20;;
39188;SDS011;24915;50.858;4.376;2022-08-19T18:17:43;6.78;;;4.65;;
39188;SDS011;24915;50.858;4.376;2022-08-19T18:20:10;6.20;;;4.22;;
39188;SDS011;24915;50.858;4.376;2022-08-19T18:22:38;5.20;;;4.20;;
39188;SDS011;24915;50.858;4.376;2022-08-19T18:27:37;4.07;;;3.63;;
39188;SDS011;24915;50.858;4.376;2022-08-19T18:30:04;5.20;;;3.53;;
39188;SDS011;24915;50.858;4.376;2022-08-19T18:32:31;7.13;;;4.00;;
39188;SDS011;24915;50.858;4.376;2022-08-19T18:35:03;5.80;;;3.92;;
39188;SDS011;24915;50.858;4.376;2022-08-19T18:37:34;4.35;;;3.60;;
39188;SDS011;24915;50.858;4.376;2022-08-19T18:40:00;4.45;;;3.92;;
39188;SDS011;24915;50.858;4.376;2022-08-19T18:42:44;7.82;;;5.35;;
39188;SDS011;24915;50.858;4.376;2022-08-19T18:45:29;6.10;;;5.32;;
39188;SDS011;24915;50.858;4.376;2022-08-19T18:48:14;6.15;;;4.28;;
39188;SDS011;24915;50.858;4.376;2022-08-19T18:50:59;6.88;;;4.80;;
39188;SDS011;24915;50.858;4.376;2022-08-19T18:53:26;7.22;;;5.03;;
39188;SDS011;24915;50.858;4.376;2022-08-19T18:55:54;7.85;;;4.93;;
39188;SDS011;24915;50.858;4.376;2022-08-19T18:58:21;6.45;;;5.53;;
39188;SDS011;24915;50.858;4.376;2022-08-19T19:00:48;6.45;;;5.22;;
39188;SDS011;24915;50.858;4.376;2022-08-19T19:03:13;6.22;;;5.30;;
39188;SDS011;24915;50.858;4.376;2022-08-19T19:05:39;6.60;;;4.90;;
39188;SDS011;24915;50.858;4.376;2022-08-19T19:08:05;5.88;;;5.18;;
39188;SDS011;24915;50.858;4.376;2022-08-19T19:10:31;9.60;;;5.50;;
39188;SDS011;24915;50.858;4.376;2022-08-19T19:12:57;5.75;;;4.35;;
39188;SDS011;24915;50.858;4.376;2022-08-19T19:15:25;5.35;;;4.45;;
39188;SDS011;24915;50.858;4.376;2022-08-19T19:17:51;6.32;;;5.10;;
39188;SDS011;24915;50.858;4.376;2022-08-19T19:20:18;6.28;;;4.65;;
39188;SDS011;24915;50.858;4.376;2022-08-19T19:22:44;8.52;;;5.20;;
39188;SDS011;24915;50.858;4.376;2022-08-19T19:25:10;5.30;;;4.80;;
39188;SDS011;24915;50.858;4.376;2022-08-19T19:27:36;9.85;;;5.28;;
39188;SDS011;24915;50.858;4.376;2022-08-19T19:30:04;7.50;;;4.78;;
39188;SDS011;24915;50.858;4.376;2022-08-19T19:32:31;9.27;;;4.40;;
39188;SDS011;24915;50.858;4.376;2022-08-19T19:35:06;6.32;;;4.07;;
39188;SDS011;24915;50.858;4.376;2022-08-19T19:37:34;5.63;;;4.65;;
39188;SDS011;24915;50.858;4.376;2022-08-19T19:40:00;15.75;;;10.15;;
39188;SDS011;24915;50.858;4.376;2022-08-19T19:42:26;8.27;;;4.50;;
39188;SDS011;24915;50.858;4.376;2022-08-19T19:44:53;9.23;;;7.05;;
39188;SDS011;24915;50.858;4.376;2022-08-19T19:47:20;6.47;;;5.25;;
39188;SDS011;24915;50.858;4.376;2022-08-19T19:49:48;4.93;;;4.38;;
39188;SDS011;24915;50.858;4.376;2022-08-19T19:52:19;4.13;;;3.72;;
39188;SDS011;24915;50.858;4.376;2022-08-19T19:54:45;6.85;;;3.83;;
39188;SDS011;24915;50.858;4.376;2022-08-19T19:57:11;7.38;;;3.58;;
39188;SDS011;24915;50.858;4.376;2022-08-19T19:59:37;6.97;;;3.40;;
39188;SDS011;24915;50.858;4.376;2022-08-19T20:02:03;4.97;;;3.53;;
39188;SDS011;24915;50.858;4.376;2022-08-19T20:04:29;4.30;;;3.22;;
39188;SDS011;24915;50.858;4.376;2022-08-19T20:06:55;5.07;;;3.60;;
39188;SDS011;24915;50.858;4.376;2022-08-19T20:09:20;6.03;;;3.80;;
39188;SDS011;24915;50.858;4.376;2022-08-19T20:11:48;5.50;;;3.22;;
39188;SDS011;24915;50.858;4.376;2022-08-19T20:16:53;6.25;;;3.40;;
39188;SDS011;24915;50.858;4.376;2022-08-19T20:19:23;13.18;;;6.97;;
39188;SDS011;24915;50.858;4.376;2022-08-19T20:21:50;6.60;;;4.70;;
39188;SDS011;24915;50.858;4.376;2022-08-19T20:24:17;3.72;;;2.38;;
39188;SDS011;24915;50.858;4.376;2022-08-19T20:26:46;4.43;;;2.67;;
39188;SDS011;24915;50.858;4.376;2022-08-19T20:29:13;3.90;;;3.63;;
39188;SDS011;24915;50.858;4.376;2022-08-19T20:31:40;4.00;;;3.25;;
39188;SDS011;24915;50.858;4.376;2022-08-19T20:34:07;3.92;;;3.13;;
39188;SDS011;24915;50.858;4.376;2022-08-19T20:36:33;13.05;;;4.00;;
39188;SDS011;24915;50.858;4.376;2022-08-19T20:39:00;4.35;;;3.40;;
39188;SDS011;24915;50.858;4.376;2022-08-19T20:41:27;4.22;;;3.47;;
39188;SDS011;24915;50.858;4.376;2022-08-19T20:43:54;4.28;;;3.85;;
39188;SDS011;24915;50.858;4.376;2022-08-19T20:46:20;6.18;;;3.10;;
39188;SDS011;24915;50.858;4.376;2022-08-19T20:48:45;5.90;;;3.00;;
39188;SDS011;24915;50.858;4.376;2022-08-19T20:51:11;6.40;;;3.15;;
39188;SDS011;24915;50.858;4.376;2022-08-19T20:53:38;3.78;;;2.97;;
39188;SDS011;24915;50.858;4.376;2022-08-19T20:56:05;3.85;;;2.55;;
39188;SDS011;24915;50.858;4.376;2022-08-19T20:58:31;4.43;;;3.00;;
39188;SDS011;24915;50.858;4.376;2022-08-19T21:00:58;4.82;;;3.25;;
39188;SDS011;24915;50.858;4.376;2022-08-19T21:03:27;6.75;;;3.85;;
39188;SDS011;24915;50.858;4.376;2022-08-19T21:05:54;5.30;;;2.90;;
39188;SDS011;24915;50.858;4.376;2022-08-19T21:08:20;3.10;;;2.83;;
39188;SDS011;24915;50.858;4.376;2022-08-19T21:10:48;3.92;;;3.25;;
39188;SDS011;24915;50.858;4.376;2022-08-19T21:13:15;4.22;;;2.80;;
39188;SDS011;24915;50.858;4.376;2022-08-19T21:15:42;4.75;;;3.13;;
39188;SDS011;24915;50.858;4.376;2022-08-19T21:18:09;4.45;;;3.05;;
39188;SDS011;24915;50.858;4.376;2022-08-19T21:20:36;4.28;;;3.60;;
39188;SDS011;24915;50.858;4.376;2022-08-19T21:23:03;4.75;;;3.38;;
39188;SDS011;24915;50.858;4.376;2022-08-19T21:25:30;4.80;;;3.50;;
39188;SDS011;24915;50.858;4.376;2022-08-19T21:27:55;6.40;;;3.85;;
39188;SDS011;24915;50.858;4.376;2022-08-19T21:30:21;6.18;;;3.50;;
39188;SDS011;24915;50.858;4.376;2022-08-19T21:32:47;6.00;;;3.75;;
39188;SDS011;24915;50.858;4.376;2022-08-19T21:35:12;6.00;;;3.75;;
39188;SDS011;24915;50.858;4.376;2022-08-19T21:37:38;4.78;;;4.18;;
39188;SDS011;24915;50.858;4.376;2022-08-19T21:40:05;7.47;;;4.60;;
39188;SDS011;24915;50.858;4.376;2022-08-19T21:42:31;6.82;;;4.05;;
39188;SDS011;24915;50.858;4.376;2022-08-19T21:44:57;4.93;;;4.43;;
39188;SDS011;24915;50.858;4.376;2022-08-19T21:47:23;4.68;;;3.92;;
39188;SDS011;24915;50.858;4.376;2022-08-19T21:49:48;5.82;;;4.28;;
39188;SDS011;24915;50.858;4.376;2022-08-19T21:52:19;6.63;;;4.22;;
39188;SDS011;24915;50.858;4.376;2022-08-19T21:54:49;5.80;;;3.92;;
39188;SDS011;24915;50.858;4.376;2022-08-19T21:57:15;4.72;;;4.05;;
39188;SDS011;24915;50.858;4.376;2022-08-19T21:59:40;4.57;;;4.18;;
39188;SDS011;24915;50.858;4.376;2022-08-19T22:02:06;5.35;;;4.10;;
39188;SDS011;24915;50.858;4.376;2022-08-19T22:04:37;4.88;;;3.90;;
39188;SDS011;24915;50.858;4.376;2022-08-19T22:07:05;4.95;;;4.10;;
39188;SDS011;24915;50.858;4.376;2022-08-19T22:09:34;5.63;;;4.30;;
39188;SDS011;24915;50.858;4.376;2022-08-19T22:12:04;5.38;;;4.43;;
39188;SDS011;24915;50.858;4.376;2022-08-19T22:14:33;8.48;;;4.40;;
39188;SDS011;24915;50.858;4.376;2022-08-19T22:17:00;6.55;;;4.45;;
39188;SDS011;24915;50.858;4.376;2022-08-19T22:19:26;5.10;;;4.60;;
39188;SDS011;24915;50.858;4.376;2022-08-19T22:21:53;6.32;;;4.57;;
39188;SDS011;24915;50.858;4.376;2022-08-19T22:24:21;5.35;;;4.38;;
39188;SDS011;24915;50.858;4.376;2022-08-19T22:26:47;9.55;;;4.60;;
39188;SDS011;24915;50.858;4.376;2022-08-19T22:29:13;5.80;;;4.07;;
39188;SDS011;24915;50.858;4.376;2022-08-19T22:31:40;10.02;;;3.83;;
39188;SDS011;24915;50.858;4.376;2022-08-19T22:34:06;6.07;;;4.60;;
39188;SDS011;24915;50.858;4.376;2022-08-19T22:36:32;6.63;;;4.35;;
39188;SDS011;24915;50.858;4.376;2022-08-19T22:38:58;5.35;;;4.45;;
39188;SDS011;24915;50.858;4.376;2022-08-19T22:41:24;7.80;;;4.65;;
39188;SDS011;24915;50.858;4.376;2022-08-19T22:43:51;5.65;;;5.15;;
39188;SDS011;24915;50.858;4.376;2022-08-19T22:46:17;5.90;;;4.95;;
39188;SDS011;24915;50.858;4.376;2022-08-19T22:48:43;7.03;;;4.93;;
39188;SDS011;24915;50.858;4.376;2022-08-19T22:51:09;5.47;;;4.68;;
39188;SDS011;24915;50.858;4.376;2022-08-19T22:56:20;6.70;;;5.40;;
39188;SDS011;24915;50.858;4.376;2022-08-19T22:58:46;8.68;;;5.88;;
39188;SDS011;24915;50.858;4.376;2022-08-19T23:01:13;9.00;;;6.28;;
39188;SDS011;24915;50.858;4.376;2022-08-19T23:03:40;10.52;;;6.38;;
39188;SDS011;24915;50.858;4.376;2022-08-19T23:06:06;7.65;;;5.90;;
39188;SDS011;24915;50.858;4.376;2022-08-19T23:08:32;8.00;;;5.72;;
39188;SDS011;24915;50.858;4.376;2022-08-19T23:10:58;7.82;;;5.32;;
39188;SDS011;24915;50.858;4.376;2022-08-19T23:13:23;10.73;;;5.97;;
39188;SDS011;24915;50.858;4.376;2022-08-19T23:15:49;8.80;;;5.50;;
39188;SDS011;24915;50.858;4.376;2022-08-19T23:18:15;8.65;;;4.97;;
39188;SDS011;24915;50.858;4.376;2022-08-19T23:20:41;8.48;;;5.45;;
39188;SDS011;24915;50.858;4.376;2022-08-19T23:23:08;8.13;;;5.53;;
39188;SDS011;24915;50.858;4.376;2022-08-19T23:25:38;7.57;;;5.03;;
39188;SDS011;24915;50.858;4.376;2022-08-19T23:28:04;7.90;;;5.60;;
39188;SDS011;24915;50.858;4.376;2022-08-19T23:30:49;8.27;;;5.70;;
39188;SDS011;24915;50.858;4.376;2022-08-19T23:33:21;9.40;;;5.68;;
39188;SDS011;24915;50.858;4.376;2022-08-19T23:35:52;6.50;;;5.78;;
39188;SDS011;24915;50.858;4.376;2022-08-19T23:38:30;9.35;;;6.68;;
39188;SDS011;24915;50.858;4.376;2022-08-19T23:40:57;10.15;;;6.85;;
39188;SDS011;24915;50.858;4.376;2022-08-19T23:43:25;7.90;;;6.18;;
39188;SDS011;24915;50.858;4.376;2022-08-19T23:45:55;10.90;;;6.00;;
39188;SDS011;24915;50.858;4.376;2022-08-19T23:48:23;8.93;;;6.25;;
39188;SDS011;24915;50.858;4.376;2022-08-19T23:50:50;9.57;;;6.18;;
39188;SDS011;24915;50.858;4.376;2022-08-19T23:53:16;8.55;;;6.05;;
39188;SDS011;24915;50.858;4.376;2022-08-19T23:55:43;9.82;;;6.25;;
39188;SDS011;24915;50.858;4.376;2022-08-19T23:58:10;14.35;;;5.88;;
